Time;durP1;ratioP1;P1;durP2;ratioP2;P2;SDS_P1;SDS_P2;PMS_P1;PMS_P2;Temp;Humidity;BMP_temperature;BMP_pressure;BME280_temperature;BME280_humidity;BME280_pressure;Samples;Min_cycle;Max_cycle;Signal;HPM_P1;HPM_P2
2022/10/30 00:00:08;;;;;;;6.93;3.10;;;;;;;;;;5043803;28;20184;-77
2022/10/30 00:02:33;;;;;;;7.80;2.80;;;;;;;;;;5031906;28;20186;-77
2022/10/30 00:04:58;;;;;;;8.43;2.60;;;;;;;;;;5035790;28;20181;-77
2022/10/30 00:07:23;;;;;;;10.17;2.77;;;;;;;;;;5026398;28;20227;-76
2022/10/30 00:09:48;;;;;;;12.27;3.37;;;;;;;;;;5028831;28;20177;-77
2022/10/30 00:12:14;;;;;;;11.17;3.00;;;;;;;;;;5044567;28;20176;-77
2022/10/30 00:14:39;;;;;;;8.23;2.97;;;;;;;;;;5023630;28;20201;-76
2022/10/30 00:17:04;;;;;;;7.60;2.57;;;;;;;;;;5035097;28;20187;-77
2022/10/30 00:19:29;;;;;;;7.03;2.67;;;;;;;;;;5043200;28;20223;-77
2022/10/30 00:21:56;;;;;;;6.57;3.27;;;;;;;;;;5028201;28;20216;-77
2022/10/30 00:24:21;;;;;;;9.83;3.67;;;;;;;;;;5037453;28;20184;-77
2022/10/30 00:26:47;;;;;;;9.03;3.33;;;;;;;;;;5031827;28;20234;-77
2022/10/30 00:29:12;;;;;;;8.53;2.77;;;;;;;;;;5041301;28;20190;-77
2022/10/30 00:31:37;;;;;;;5.03;2.63;;;;;;;;;;5026620;28;20177;-77
2022/10/30 00:34:02;;;;;;;8.20;3.00;;;;;;;;;;5028937;28;20231;-77
2022/10/30 00:36:27;;;;;;;9.37;2.50;;;;;;;;;;5033427;28;20257;-77
2022/10/30 00:38:53;;;;;;;8.90;2.73;;;;;;;;;;5028418;28;20182;-77
2022/10/30 00:41:20;;;;;;;7.83;3.17;;;;;;;;;;5034588;28;20179;-77
2022/10/30 00:43:45;;;;;;;7.53;3.30;;;;;;;;;;5025278;28;20182;-77
2022/10/30 00:46:13;;;;;;;7.90;3.40;;;;;;;;;;5036430;28;20186;-77
2022/10/30 00:48:39;;;;;;;9.63;3.60;;;;;;;;;;5033809;28;20207;-76
2022/10/30 00:51:06;;;;;;;8.53;2.67;;;;;;;;;;5031057;28;20243;-77
2022/10/30 00:53:32;;;;;;;4.77;2.50;;;;;;;;;;5023433;28;20190;-77
2022/10/30 00:55:59;;;;;;;9.57;2.77;;;;;;;;;;5025670;28;20178;-77
2022/10/30 00:58:27;;;;;;;8.93;2.70;;;;;;;;;;5028739;28;20180;-77
2022/10/30 01:00:55;;;;;;;8.00;3.20;;;;;;;;;;5026528;28;20208;-77
2022/10/30 01:03:21;;;;;;;7.03;2.97;;;;;;;;;;5023244;28;20217;-77
2022/10/30 01:05:47;;;;;;;9.93;3.20;;;;;;;;;;5031662;28;20288;-76
2022/10/30 01:08:13;;;;;;;5.67;2.60;;;;;;;;;;5029251;28;20592;-77
2022/10/30 01:10:38;;;;;;;8.13;3.03;;;;;;;;;;5029667;28;20188;-77
2022/10/30 01:13:03;;;;;;;4.17;2.37;;;;;;;;;;5030722;28;20176;-77
2022/10/30 01:15:33;;;;;;;4.83;2.83;;;;;;;;;;5031799;28;20244;-77
2022/10/30 01:18:10;;;;;;;7.07;2.73;;;;;;;;;;5030148;28;20178;-76
2022/10/30 01:20:53;;;;;;;9.73;3.30;;;;;;;;;;5027485;28;20275;-77
2022/10/30 01:23:28;;;;;;;8.17;2.73;;;;;;;;;;5030930;28;20188;-76
2022/10/30 01:25:59;;;;;;;8.27;3.20;;;;;;;;;;5032393;28;20187;-77
2022/10/30 01:28:33;;;;;;;8.03;2.60;;;;;;;;;;5030187;28;20203;-77
2022/10/30 01:30:58;;;;;;;8.73;2.90;;;;;;;;;;5029376;28;20316;-77
2022/10/30 01:33:30;;;;;;;9.67;3.47;;;;;;;;;;5029821;28;20313;-77
2022/10/30 01:36:07;;;;;;;6.27;2.67;;;;;;;;;;5038361;28;20172;-78
2022/10/30 01:38:41;;;;;;;11.37;3.20;;;;;;;;;;5027372;28;20258;-77
2022/10/30 01:41:06;;;;;;;12.17;2.80;;;;;;;;;;5028816;28;20187;-77
2022/10/30 01:43:32;;;;;;;6.57;2.80;;;;;;;;;;5029498;28;20197;-77
2022/10/30 01:45:57;;;;;;;8.30;3.17;;;;;;;;;;5028462;28;20184;-77
2022/10/30 01:48:22;;;;;;;10.70;2.77;;;;;;;;;;5030073;28;20288;-77
2022/10/30 01:50:59;;;;;;;9.17;2.73;;;;;;;;;;5025184;28;20369;-77
2022/10/30 01:53:27;;;;;;;11.50;2.90;;;;;;;;;;5025508;28;20180;-77
2022/10/30 01:55:52;;;;;;;9.17;3.10;;;;;;;;;;5031762;28;20182;-77
2022/10/30 01:58:33;;;;;;;8.57;2.80;;;;;;;;;;5029925;28;20181;-77
2022/10/30 02:00:59;;;;;;;4.80;2.27;;;;;;;;;;5025556;28;20818;-77
2022/10/30 02:03:25;;;;;;;11.73;2.90;;;;;;;;;;5033698;28;20186;-77
2022/10/30 02:05:50;;;;;;;7.27;2.80;;;;;;;;;;5029074;28;20182;-76
2022/10/30 02:08:16;;;;;;;8.83;3.43;;;;;;;;;;5031178;28;20206;-76
2022/10/30 02:10:42;;;;;;;7.83;2.63;;;;;;;;;;5030770;28;20282;-77
2022/10/30 02:13:08;;;;;;;6.00;2.40;;;;;;;;;;5046070;28;20179;-77
2022/10/30 02:15:34;;;;;;;8.50;3.27;;;;;;;;;;5033417;28;20208;-77
2022/10/30 02:17:59;;;;;;;6.00;2.63;;;;;;;;;;5030283;28;20186;-77
2022/10/30 02:20:24;;;;;;;6.33;2.93;;;;;;;;;;5029967;28;20186;-77
2022/10/30 02:22:49;;;;;;;7.37;2.20;;;;;;;;;;5023215;28;20187;-77
2022/10/30 02:25:15;;;;;;;5.37;2.77;;;;;;;;;;5031928;28;20213;-77
2022/10/30 02:27:41;;;;;;;12.40;3.90;;;;;;;;;;5031440;28;20201;-77
2022/10/30 02:30:06;;;;;;;10.27;3.10;;;;;;;;;;5031011;28;20265;-77
2022/10/30 02:32:31;;;;;;;13.47;2.67;;;;;;;;;;5031435;28;20252;-76
2022/10/30 02:34:57;;;;;;;13.20;2.97;;;;;;;;;;5050238;28;20252;-77
2022/10/30 02:37:24;;;;;;;7.40;2.47;;;;;;;;;;5031350;28;20230;-77
2022/10/30 02:39:49;;;;;;;7.83;2.80;;;;;;;;;;5036728;28;20241;-77
2022/10/30 02:42:14;;;;;;;7.40;3.00;;;;;;;;;;5039818;28;20197;-76
2022/10/30 02:44:40;;;;;;;10.90;2.93;;;;;;;;;;5034653;28;20190;-77
2022/10/30 02:47:05;;;;;;;9.63;3.07;;;;;;;;;;5037899;28;20255;-76
2022/10/30 02:49:30;;;;;;;11.07;2.43;;;;;;;;;;5032019;28;20187;-77
2022/10/30 02:51:56;;;;;;;6.40;2.30;;;;;;;;;;5044210;28;20185;-76
2022/10/30 02:54:21;;;;;;;7.47;2.43;;;;;;;;;;5037959;28;20185;-76
2022/10/30 02:56:46;;;;;;;6.47;2.70;;;;;;;;;;5034655;28;20173;-77
2022/10/30 02:59:11;;;;;;;9.10;2.90;;;;;;;;;;5050980;28;20190;-77
2022/10/30 03:01:36;;;;;;;8.37;2.60;;;;;;;;;;5036402;28;20181;-77
2022/10/30 03:04:02;;;;;;;7.13;2.40;;;;;;;;;;5035938;28;20201;-77
2022/10/30 03:06:27;;;;;;;9.50;2.67;;;;;;;;;;5053778;28;20188;-77
2022/10/30 03:08:52;;;;;;;9.30;3.53;;;;;;;;;;5036120;28;20209;-77
2022/10/30 03:11:18;;;;;;;10.13;3.10;;;;;;;;;;5036474;28;20177;-77
2022/10/30 03:13:44;;;;;;;8.20;3.80;;;;;;;;;;5048969;28;20192;-76
2022/10/30 03:16:11;;;;;;;12.57;3.43;;;;;;;;;;5038639;28;20177;-76
2022/10/30 03:18:36;;;;;;;12.30;2.93;;;;;;;;;;5055561;28;20273;-77
2022/10/30 03:21:03;;;;;;;5.77;2.50;;;;;;;;;;5037446;28;20223;-77
2022/10/30 03:23:29;;;;;;;6.73;2.53;;;;;;;;;;5053714;28;20200;-76
2022/10/30 03:25:55;;;;;;;6.53;2.53;;;;;;;;;;5035656;28;20177;-77
2022/10/30 03:28:21;;;;;;;6.80;2.43;;;;;;;;;;5053759;28;20216;-77
2022/10/30 03:30:47;;;;;;;10.00;2.60;;;;;;;;;;5050221;28;20300;-76
2022/10/30 03:33:12;;;;;;;5.50;2.60;;;;;;;;;;5034314;28;20234;-76
2022/10/30 03:35:37;;;;;;;5.13;2.17;;;;;;;;;;5034859;28;20206;-76
2022/10/30 03:38:03;;;;;;;7.17;2.10;;;;;;;;;;5032860;28;20210;-77
2022/10/30 03:40:28;;;;;;;7.67;3.03;;;;;;;;;;5030547;28;20186;-77
2022/10/30 03:42:53;;;;;;;6.77;2.27;;;;;;;;;;5033875;28;20183;-77
2022/10/30 03:45:18;;;;;;;7.40;2.83;;;;;;;;;;5027516;28;20181;-77
2022/10/30 03:47:43;;;;;;;3.43;2.07;;;;;;;;;;5036630;28;20213;-77
2022/10/30 03:50:09;;;;;;;6.07;2.83;;;;;;;;;;5027277;28;20204;-77
2022/10/30 03:52:34;;;;;;;7.43;2.20;;;;;;;;;;5031213;28;20190;-76
2022/10/30 03:54:59;;;;;;;7.33;2.30;;;;;;;;;;5033546;28;20205;-76
2022/10/30 03:57:24;;;;;;;6.63;2.13;;;;;;;;;;5032882;28;20315;-76
2022/10/30 03:59:49;;;;;;;4.53;2.00;;;;;;;;;;5030114;28;20269;-77
2022/10/30 04:02:15;;;;;;;4.10;1.60;;;;;;;;;;5030242;28;20198;-76
2022/10/30 04:04:40;;;;;;;5.03;2.30;;;;;;;;;;5028781;28;20186;-76
2022/10/30 04:07:05;;;;;;;4.93;2.10;;;;;;;;;;5032292;28;20203;-76
2022/10/30 04:09:30;;;;;;;5.30;1.83;;;;;;;;;;5027312;28;20225;-77
2022/10/30 04:11:56;;;;;;;3.20;1.60;;;;;;;;;;5034284;28;20202;-76
2022/10/30 04:14:21;;;;;;;3.17;1.93;;;;;;;;;;5029556;28;20243;-76
2022/10/30 04:16:46;;;;;;;9.60;2.57;;;;;;;;;;5029859;28;20177;-77
2022/10/30 04:19:11;;;;;;;6.97;2.30;;;;;;;;;;5029819;28;20230;-77
2022/10/30 04:21:37;;;;;;;5.80;1.90;;;;;;;;;;5036611;28;20187;-76
2022/10/30 04:24:02;;;;;;;4.87;2.00;;;;;;;;;;5031032;28;20178;-76
2022/10/30 04:26:27;;;;;;;3.20;1.60;;;;;;;;;;5029866;28;20180;-76
2022/10/30 04:28:52;;;;;;;3.57;1.50;;;;;;;;;;5027999;28;20210;-76
2022/10/30 04:31:18;;;;;;;4.80;2.00;;;;;;;;;;5032706;28;20214;-76
2022/10/30 04:33:43;;;;;;;3.63;1.70;;;;;;;;;;5030076;28;20218;-76
2022/10/30 04:36:08;;;;;;;4.17;1.60;;;;;;;;;;5034059;28;20189;-77
2022/10/30 04:38:33;;;;;;;5.60;1.70;;;;;;;;;;5027728;28;20190;-77
2022/10/30 04:40:59;;;;;;;5.13;1.57;;;;;;;;;;5032352;28;20178;-76
2022/10/30 04:43:24;;;;;;;3.97;1.50;;;;;;;;;;5031039;28;20225;-77
2022/10/30 04:45:49;;;;;;;2.83;1.60;;;;;;;;;;5032127;28;20260;-77
2022/10/30 04:48:16;;;;;;;1.87;1.47;;;;;;;;;;5031308;28;20220;-76
2022/10/30 04:50:42;;;;;;;4.67;1.90;;;;;;;;;;5030493;28;20177;-76
2022/10/30 04:53:15;;;;;;;3.57;1.60;;;;;;;;;;5029928;28;20207;-77
2022/10/30 04:55:40;;;;;;;3.47;1.60;;;;;;;;;;5027381;28;20190;-77
2022/10/30 04:58:07;;;;;;;8.13;1.80;;;;;;;;;;5029759;28;20291;-76
2022/10/30 05:00:32;;;;;;;2.93;1.60;;;;;;;;;;5030813;28;20212;-76
2022/10/30 05:02:59;;;;;;;2.57;1.60;;;;;;;;;;5034533;28;20173;-76
2022/10/30 05:05:25;;;;;;;5.00;1.87;;;;;;;;;;5032659;28;20602;-76
2022/10/30 05:07:50;;;;;;;2.53;1.50;;;;;;;;;;5027385;28;20218;-77
2022/10/30 05:10:15;;;;;;;4.70;1.90;;;;;;;;;;5028014;28;20205;-76
2022/10/30 05:12:42;;;;;;;2.87;1.33;;;;;;;;;;5030348;28;20172;-76
2022/10/30 05:15:07;;;;;;;3.27;1.17;;;;;;;;;;5030424;28;20188;-77
2022/10/30 05:17:32;;;;;;;2.90;1.50;;;;;;;;;;5030822;28;20188;-77
2022/10/30 05:19:57;;;;;;;1.73;1.20;;;;;;;;;;5029500;28;20263;-76
2022/10/30 05:22:23;;;;;;;2.83;1.10;;;;;;;;;;5030609;28;20173;-76
2022/10/30 05:24:48;;;;;;;2.93;1.57;;;;;;;;;;5024752;28;20188;-77
2022/10/30 05:27:14;;;;;;;4.07;1.43;;;;;;;;;;5025933;28;20200;-77
2022/10/30 05:29:39;;;;;;;3.87;1.90;;;;;;;;;;5030921;28;20205;-76
2022/10/30 05:32:04;;;;;;;6.13;1.33;;;;;;;;;;5030777;28;20187;-77
2022/10/30 05:34:29;;;;;;;5.33;1.73;;;;;;;;;;5031547;28;20246;-76
2022/10/30 05:36:55;;;;;;;2.17;1.60;;;;;;;;;;5032094;28;20184;-76
2022/10/30 05:39:20;;;;;;;2.63;1.30;;;;;;;;;;5033463;28;20200;-77
2022/10/30 05:41:45;;;;;;;2.60;1.30;;;;;;;;;;5027448;28;20192;-76
2022/10/30 05:44:10;;;;;;;4.23;1.57;;;;;;;;;;5029220;28;20171;-76
2022/10/30 05:46:36;;;;;;;3.60;1.50;;;;;;;;;;5031151;28;20175;-76
2022/10/30 05:49:01;;;;;;;4.53;1.60;;;;;;;;;;5029851;28;20294;-77
2022/10/30 05:51:26;;;;;;;7.03;1.73;;;;;;;;;;5029121;28;20179;-76
2022/10/30 05:53:51;;;;;;;4.40;1.80;;;;;;;;;;5028736;28;20276;-76
2022/10/30 05:56:16;;;;;;;4.67;2.13;;;;;;;;;;5027360;28;20199;-76
2022/10/30 05:58:42;;;;;;;5.67;2.07;;;;;;;;;;5026665;28;20624;-76
2022/10/30 06:01:07;;;;;;;4.23;2.17;;;;;;;;;;5026983;28;20266;-76
2022/10/30 06:03:32;;;;;;;3.33;2.00;;;;;;;;;;5030292;28;20206;-77
2022/10/30 06:05:58;;;;;;;5.57;2.07;;;;;;;;;;5029145;28;20176;-76
2022/10/30 06:08:23;;;;;;;4.77;1.80;;;;;;;;;;5028143;28;20206;-76
2022/10/30 06:10:48;;;;;;;3.90;2.00;;;;;;;;;;5026660;28;20165;-76
2022/10/30 06:13:13;;;;;;;3.67;1.47;;;;;;;;;;5024774;28;20204;-76
2022/10/30 06:15:39;;;;;;;6.63;2.40;;;;;;;;;;5026873;28;20201;-77
2022/10/30 06:18:04;;;;;;;4.40;1.60;;;;;;;;;;5026553;28;20187;-76
2022/10/30 06:20:29;;;;;;;4.10;1.67;;;;;;;;;;5033817;28;20188;-76
2022/10/30 06:22:55;;;;;;;2.80;2.00;;;;;;;;;;5029209;28;20242;-76
2022/10/30 06:25:20;;;;;;;2.33;1.80;;;;;;;;;;5028912;28;20183;-76
2022/10/30 06:27:46;;;;;;;3.87;1.93;;;;;;;;;;5027560;28;20290;-76
2022/10/30 06:30:11;;;;;;;2.00;1.20;;;;;;;;;;5030281;28;20179;-77
2022/10/30 06:32:36;;;;;;;4.10;1.27;;;;;;;;;;5032436;28;20271;-76
2022/10/30 06:35:01;;;;;;;1.57;1.10;;;;;;;;;;5033391;28;20174;-77
2022/10/30 06:37:27;;;;;;;2.83;1.40;;;;;;;;;;5032541;28;20183;-76
2022/10/30 06:39:53;;;;;;;2.27;1.40;;;;;;;;;;5034629;28;20188;-76
2022/10/30 06:42:18;;;;;;;2.63;1.57;;;;;;;;;;5048742;28;20170;-76
2022/10/30 06:44:43;;;;;;;3.13;1.90;;;;;;;;;;5032374;28;20184;-76
2022/10/30 06:47:08;;;;;;;6.67;2.73;;;;;;;;;;5028949;28;20172;-76
2022/10/30 06:49:34;;;;;;;4.50;1.63;;;;;;;;;;5039078;28;20189;-77
2022/10/30 06:51:59;;;;;;;3.77;2.27;;;;;;;;;;5049164;28;20174;-77
2022/10/30 06:54:24;;;;;;;3.37;1.90;;;;;;;;;;5034518;28;20181;-76
2022/10/30 06:56:50;;;;;;;3.83;1.63;;;;;;;;;;5030609;28;20250;-76
2022/10/30 06:59:15;;;;;;;7.20;2.80;;;;;;;;;;5031653;28;20214;-77
2022/10/30 07:01:40;;;;;;;2.73;1.73;;;;;;;;;;5031152;28;20182;-77
2022/10/30 07:04:06;;;;;;;2.20;1.63;;;;;;;;;;5042106;28;20186;-76
2022/10/30 07:06:31;;;;;;;3.93;1.97;;;;;;;;;;5029855;28;20176;-76
2022/10/30 07:08:56;;;;;;;5.67;1.70;;;;;;;;;;5028888;28;20201;-77
2022/10/30 07:11:21;;;;;;;5.17;1.77;;;;;;;;;;5039973;28;20221;-76
2022/10/30 07:13:47;;;;;;;2.33;1.83;;;;;;;;;;5032228;28;20203;-77
2022/10/30 07:16:12;;;;;;;2.30;1.80;;;;;;;;;;5032291;28;20198;-77
2022/10/30 07:18:37;;;;;;;3.50;1.93;;;;;;;;;;5055539;28;20180;-76
2022/10/30 07:21:02;;;;;;;3.53;1.57;;;;;;;;;;5032168;28;20235;-76
2022/10/30 07:23:27;;;;;;;1.53;1.33;;;;;;;;;;5044562;28;20243;-76
2022/10/30 07:25:53;;;;;;;3.93;1.80;;;;;;;;;;5033562;28;20187;-76
2022/10/30 07:28:18;;;;;;;2.60;1.50;;;;;;;;;;5036035;28;20239;-76
2022/10/30 07:30:43;;;;;;;4.93;2.13;;;;;;;;;;5053013;28;20171;-77
2022/10/30 07:33:08;;;;;;;3.10;1.60;;;;;;;;;;5032588;28;20230;-76
2022/10/30 07:35:34;;;;;;;3.67;1.50;;;;;;;;;;5031866;28;20239;-76
2022/10/30 07:38:03;;;;;;;1.87;1.30;;;;;;;;;;5029829;28;20204;-76
2022/10/30 07:40:29;;;;;;;3.33;1.40;;;;;;;;;;5031172;28;20184;-76
2022/10/30 07:42:55;;;;;;;2.00;1.33;;;;;;;;;;5032723;28;20196;-76
2022/10/30 07:45:20;;;;;;;3.40;1.47;;;;;;;;;;5031271;28;20214;-76
2022/10/30 07:47:45;;;;;;;1.57;1.43;;;;;;;;;;5037242;28;20224;-76
2022/10/30 07:50:10;;;;;;;3.57;1.67;;;;;;;;;;5032429;28;20287;-77
2022/10/30 07:52:36;;;;;;;1.70;1.20;;;;;;;;;;5030477;28;20238;-76
2022/10/30 07:55:01;;;;;;;4.10;1.67;;;;;;;;;;5032149;28;20224;-76
2022/10/30 07:57:29;;;;;;;2.03;1.27;;;;;;;;;;5031937;28;20182;-76
2022/10/30 07:59:54;;;;;;;5.30;1.80;;;;;;;;;;5036736;28;20180;-76
2022/10/30 08:02:19;;;;;;;2.90;1.50;;;;;;;;;;5032344;28;20182;-76
2022/10/30 08:04:45;;;;;;;2.13;1.30;;;;;;;;;;5030910;28;20189;-76
2022/10/30 08:07:10;;;;;;;2.07;1.20;;;;;;;;;;5026846;28;20212;-76
2022/10/30 08:09:35;;;;;;;1.47;1.20;;;;;;;;;;5031734;28;20259;-76
2022/10/30 08:12:01;;;;;;;1.17;1.07;;;;;;;;;;5038745;28;20167;-77
2022/10/30 08:14:27;;;;;;;2.90;2.03;;;;;;;;;;5030089;28;20174;-77
2022/10/30 08:16:52;;;;;;;9.07;7.17;;;;;;;;;;5033141;28;20188;-76
2022/10/30 08:19:17;;;;;;;10.63;8.87;;;;;;;;;;5029966;28;20182;-77
2022/10/30 08:21:42;;;;;;;6.47;5.03;;;;;;;;;;5030824;28;20198;-76
2022/10/30 08:24:08;;;;;;;3.30;2.30;;;;;;;;;;5030302;28;20186;-77
2022/10/30 08:26:34;;;;;;;2.67;1.70;;;;;;;;;;5030639;28;20190;-77
2022/10/30 08:28:59;;;;;;;2.83;2.10;;;;;;;;;;5031692;28;20203;-76
2022/10/30 08:31:24;;;;;;;1.90;1.57;;;;;;;;;;5032051;28;20186;-76
2022/10/30 08:33:49;;;;;;;2.33;1.40;;;;;;;;;;5033724;28;20262;-77
2022/10/30 08:36:15;;;;;;;2.27;1.30;;;;;;;;;;5028261;28;20189;-77
2022/10/30 08:38:40;;;;;;;3.13;1.27;;;;;;;;;;5032877;28;20283;-77
2022/10/30 08:41:05;;;;;;;1.53;1.30;;;;;;;;;;5032884;28;20179;-77
2022/10/30 08:43:30;;;;;;;4.40;1.33;;;;;;;;;;5032578;28;20171;-77
2022/10/30 08:45:59;;;;;;;1.70;1.13;;;;;;;;;;5035618;28;20184;-76
2022/10/30 08:48:24;;;;;;;4.37;1.47;;;;;;;;;;5031667;28;20210;-76
2022/10/30 08:50:49;;;;;;;2.07;1.50;;;;;;;;;;5028747;28;20183;-77
2022/10/30 08:53:14;;;;;;;4.03;1.63;;;;;;;;;;5025408;28;20171;-77
2022/10/30 08:55:40;;;;;;;1.33;1.20;;;;;;;;;;5031209;28;20184;-77
2022/10/30 08:58:07;;;;;;;2.43;1.40;;;;;;;;;;5033562;28;20186;-77
2022/10/30 09:00:33;;;;;;;2.77;1.53;;;;;;;;;;5030640;28;20237;-77
2022/10/30 09:02:58;;;;;;;2.83;1.30;;;;;;;;;;5029016;28;20177;-77
2022/10/30 09:05:23;;;;;;;4.60;1.50;;;;;;;;;;5027953;28;20622;-76
2022/10/30 09:07:48;;;;;;;2.33;1.50;;;;;;;;;;5029131;28;20266;-77
2022/10/30 09:10:14;;;;;;;4.57;1.43;;;;;;;;;;5032135;28;20182;-77
2022/10/30 09:12:39;;;;;;;3.43;1.50;;;;;;;;;;5032202;28;20184;-77
2022/10/30 09:15:05;;;;;;;2.80;1.47;;;;;;;;;;5029746;28;20237;-77
2022/10/30 09:17:30;;;;;;;1.40;1.30;;;;;;;;;;5038330;28;20265;-77
2022/10/30 09:19:55;;;;;;;1.23;1.10;;;;;;;;;;5032867;28;20181;-77
2022/10/30 09:22:20;;;;;;;2.00;1.37;;;;;;;;;;5033016;28;20189;-77
2022/10/30 09:24:46;;;;;;;3.30;1.50;;;;;;;;;;5031050;28;20168;-78
2022/10/30 09:27:11;;;;;;;1.50;1.30;;;;;;;;;;5034013;28;20178;-76
2022/10/30 09:29:36;;;;;;;2.97;1.73;;;;;;;;;;5030810;28;20197;-76
2022/10/30 09:32:03;;;;;;;1.83;1.27;;;;;;;;;;5035571;28;20224;-77
2022/10/30 09:34:29;;;;;;;3.93;1.97;;;;;;;;;;5038553;28;20248;-77
2022/10/30 09:36:54;;;;;;;2.13;1.10;;;;;;;;;;5025458;28;20193;-77
2022/10/30 09:39:20;;;;;;;2.30;1.30;;;;;;;;;;5026601;28;20188;-78
2022/10/30 09:41:51;;;;;;;3.97;1.47;;;;;;;;;;5033065;28;20176;-77
2022/10/30 09:44:32;;;;;;;2.17;1.40;;;;;;;;;;5028714;28;20183;-77
2022/10/30 09:47:16;;;;;;;1.90;1.33;;;;;;;;;;5030658;28;20261;-77
2022/10/30 09:49:48;;;;;;;2.50;1.73;;;;;;;;;;5031486;28;20196;-77
2022/10/30 09:52:32;;;;;;;1.50;1.37;;;;;;;;;;5030238;28;20174;-77
2022/10/30 09:55:15;;;;;;;4.70;1.30;;;;;;;;;;5026464;28;20168;-77
2022/10/30 09:57:43;;;;;;;1.93;1.40;;;;;;;;;;5046580;28;20210;-77
2022/10/30 10:00:11;;;;;;;3.70;1.67;;;;;;;;;;5030126;28;20189;-77
2022/10/30 10:02:55;;;;;;;4.33;1.43;;;;;;;;;;5031756;28;20180;-77
2022/10/30 10:05:23;;;;;;;3.03;1.27;;;;;;;;;;5043283;28;20184;-77
2022/10/30 10:07:51;;;;;;;2.40;1.50;;;;;;;;;;5022771;28;20558;-77
2022/10/30 10:10:36;;;;;;;3.27;1.77;;;;;;;;;;5029815;28;20267;-77
2022/10/30 10:13:02;;;;;;;3.30;1.40;;;;;;;;;;5030309;28;20200;-77
2022/10/30 10:15:27;;;;;;;1.50;1.40;;;;;;;;;;5025697;28;20177;-77
2022/10/30 10:17:54;;;;;;;3.00;1.60;;;;;;;;;;5036855;28;20187;-77
2022/10/30 10:20:28;;;;;;;2.70;1.83;;;;;;;;;;5028007;28;20255;-77
2022/10/30 10:22:56;;;;;;;3.27;1.60;;;;;;;;;;5028850;28;20234;-77
2022/10/30 10:25:22;;;;;;;2.87;1.37;;;;;;;;;;5028126;28;20192;-77
2022/10/30 10:27:47;;;;;;;3.13;1.90;;;;;;;;;;5027755;28;20206;-77
2022/10/30 10:30:14;;;;;;;3.07;1.77;;;;;;;;;;5048161;28;20188;-77
2022/10/30 10:32:59;;;;;;;2.23;1.43;;;;;;;;;;5031306;28;20238;-77
2022/10/30 10:35:43;;;;;;;2.10;1.43;;;;;;;;;;5047601;28;20243;-77
2022/10/30 10:38:28;;;;;;;2.40;1.87;;;;;;;;;;5045882;28;20188;-77
2022/10/30 10:40:54;;;;;;;6.60;1.80;;;;;;;;;;5035341;28;20230;-77
2022/10/30 10:43:28;;;;;;;2.50;1.40;;;;;;;;;;5035234;28;20243;-77
2022/10/30 10:46:12;;;;;;;2.30;1.83;;;;;;;;;;5043570;28;20357;-77
2022/10/30 10:48:58;;;;;;;3.17;2.43;;;;;;;;;;5034914;28;20255;-77
2022/10/30 10:51:26;;;;;;;1.60;1.27;;;;;;;;;;5042851;28;20185;-77
2022/10/30 10:53:59;;;;;;;2.93;1.57;;;;;;;;;;5033002;28;20182;-77
2022/10/30 10:56:27;;;;;;;4.20;1.77;;;;;;;;;;5030561;28;20177;-78
2022/10/30 10:58:54;;;;;;;1.70;1.60;;;;;;;;;;5032572;28;20177;-77
2022/10/30 11:01:22;;;;;;;2.13;1.83;;;;;;;;;;5047049;28;20179;-77
2022/10/30 11:03:56;;;;;;;3.30;1.70;;;;;;;;;;5038019;28;20174;-77
2022/10/30 11:06:25;;;;;;;2.45;1.58;;;;;;;;;;5039345;28;20165;-77
2022/10/30 11:08:51;;;;;;;6.05;1.83;;;;;;;;;;5049811;28;20202;-77
2022/10/30 11:11:17;;;;;;;3.45;1.92;;;;;;;;;;5036675;28;20181;-78
2022/10/30 11:13:42;;;;;;;5.43;2.10;;;;;;;;;;5038578;28;20281;-78
2022/10/30 11:16:26;;;;;;;1.75;1.48;;;;;;;;;;5036015;28;20173;-78
2022/10/30 11:19:02;;;;;;;3.22;1.90;;;;;;;;;;5037491;28;20204;-77
2022/10/30 11:21:29;;;;;;;3.78;1.75;;;;;;;;;;5031391;28;20272;-77
2022/10/30 11:23:54;;;;;;;3.03;1.85;;;;;;;;;;5031062;28;20184;-78
2022/10/30 11:26:19;;;;;;;2.72;1.80;;;;;;;;;;5035541;28;20185;-77
2022/10/30 11:28:54;;;;;;;2.67;1.80;;;;;;;;;;5036584;28;20198;-78
2022/10/30 11:31:27;;;;;;;2.85;2.03;;;;;;;;;;5036107;28;20239;-78
2022/10/30 11:33:52;;;;;;;2.88;1.45;;;;;;;;;;5032842;28;20219;-78
2022/10/30 11:36:21;;;;;;;4.30;1.80;;;;;;;;;;5031099;28;20182;-77
2022/10/30 11:38:46;;;;;;;2.05;1.60;;;;;;;;;;5032590;28;20442;-77
2022/10/30 11:41:12;;;;;;;2.47;1.67;;;;;;;;;;5032377;28;20178;-78
2022/10/30 11:43:38;;;;;;;2.95;1.42;;;;;;;;;;5030595;28;20265;-78
2022/10/30 11:46:08;;;;;;;6.13;2.85;;;;;;;;;;5031425;28;20183;-78
2022/10/30 11:48:36;;;;;;;3.67;1.92;;;;;;;;;;5038333;28;20207;-78
2022/10/30 11:51:02;;;;;;;1.83;1.73;;;;;;;;;;5032141;28;20187;-77
2022/10/30 11:53:34;;;;;;;4.90;3.53;;;;;;;;;;5037585;28;20171;-78
2022/10/30 11:56:00;;;;;;;2.67;2.17;;;;;;;;;;5027055;28;20190;-78
2022/10/30 11:58:34;;;;;;;3.47;2.67;;;;;;;;;;5030379;28;20288;-78
2022/10/30 12:01:05;;;;;;;3.97;2.08;;;;;;;;;;5034633;28;20205;-78
2022/10/30 12:03:37;;;;;;;3.60;2.20;;;;;;;;;;5037526;28;20207;-78
2022/10/30 12:06:07;;;;;;;4.57;2.63;;;;;;;;;;5036931;28;20182;-78
2022/10/30 12:08:33;;;;;;;2.35;2.08;;;;;;;;;;5027025;28;20213;-78
2022/10/30 12:10:59;;;;;;;2.85;2.00;;;;;;;;;;5028317;28;20182;-78
2022/10/30 12:13:25;;;;;;;2.08;1.58;;;;;;;;;;5030853;28;20202;-78
2022/10/30 12:16:02;;;;;;;2.53;1.90;;;;;;;;;;5011975;28;20218;-78
2022/10/30 12:18:28;;;;;;;2.72;1.95;;;;;;;;;;5031593;28;20179;-78
2022/10/30 12:20:56;;;;;;;3.42;1.95;;;;;;;;;;5029901;28;20194;-78
2022/10/30 12:23:24;;;;;;;4.95;1.90;;;;;;;;;;5031421;28;20187;-78
2022/10/30 12:26:09;;;;;;;4.10;1.50;;;;;;;;;;5031810;28;20266;-78
2022/10/30 12:28:35;;;;;;;2.90;1.70;;;;;;;;;;5042213;28;20214;-78
2022/10/30 12:31:16;;;;;;;4.10;1.85;;;;;;;;;;5031572;28;20316;-78
2022/10/30 12:34:00;;;;;;;3.78;2.33;;;;;;;;;;5028570;28;20269;-78
2022/10/30 12:36:29;;;;;;;3.33;1.95;;;;;;;;;;5049005;28;20201;-78
2022/10/30 12:39:01;;;;;;;2.50;1.90;;;;;;;;;;5035752;28;20182;-78
2022/10/30 12:41:30;;;;;;;5.72;1.50;;;;;;;;;;5032615;28;20190;-78
2022/10/30 12:44:02;;;;;;;7.97;1.88;;;;;;;;;;5023061;28;20186;-78
2022/10/30 12:46:33;;;;;;;2.92;1.80;;;;;;;;;;5029773;28;20183;-78
2022/10/30 12:49:07;;;;;;;4.05;1.80;;;;;;;;;;5035379;28;20294;-78
2022/10/30 12:51:59;;;;;;;3.40;1.83;;;;;;;;;;5030436;28;20263;-78
2022/10/30 12:54:29;;;;;;;3.00;1.65;;;;;;;;;;5025653;28;20190;-78
2022/10/30 12:57:11;;;;;;;4.22;1.90;;;;;;;;;;5028841;28;20179;-78
2022/10/30 12:59:45;;;;;;;2.25;1.80;;;;;;;;;;5046397;28;20182;-78
2022/10/30 13:02:15;;;;;;;2.40;1.92;;;;;;;;;;5033753;28;20269;-78
2022/10/30 13:04:43;;;;;;;3.53;1.80;;;;;;;;;;5037830;28;20190;-78
2022/10/30 13:07:08;;;;;;;6.82;1.90;;;;;;;;;;5026284;28;20516;-79
2022/10/30 13:09:43;;;;;;;2.13;1.40;;;;;;;;;;5032141;28;20183;-78
2022/10/30 13:12:11;;;;;;;3.17;1.60;;;;;;;;;;5029015;28;20182;-78
2022/10/30 13:14:39;;;;;;;2.30;1.58;;;;;;;;;;5029908;28;20202;-78
2022/10/30 13:17:08;;;;;;;1.70;1.50;;;;;;;;;;5032943;28;20201;-78
2022/10/30 13:19:33;;;;;;;3.38;1.30;;;;;;;;;;5030799;28;20188;-78
2022/10/30 13:22:01;;;;;;;3.13;1.90;;;;;;;;;;5036825;28;20254;-78
2022/10/30 13:24:45;;;;;;;2.95;1.77;;;;;;;;;;5036253;28;20175;-78
2022/10/30 13:27:17;;;;;;;2.28;1.95;;;;;;;;;;5030035;28;20290;-78
2022/10/30 13:29:52;;;;;;;3.90;1.40;;;;;;;;;;5027057;28;20211;-78
2022/10/30 13:32:17;;;;;;;1.80;1.58;;;;;;;;;;5029220;28;20174;-78
2022/10/30 13:34:56;;;;;;;3.55;1.85;;;;;;;;;;5048845;28;20222;-78
2022/10/30 13:37:27;;;;;;;4.18;2.50;;;;;;;;;;5028991;28;20175;-78
2022/10/30 13:40:05;;;;;;;4.95;1.88;;;;;;;;;;5038518;28;20242;-78
2022/10/30 13:42:30;;;;;;;3.40;1.75;;;;;;;;;;5030711;28;20186;-78
2022/10/30 13:45:18;;;;;;;1.63;1.48;;;;;;;;;;5032979;28;20175;-78
2022/10/30 13:47:54;;;;;;;2.05;1.67;;;;;;;;;;5037620;28;20198;-78
2022/10/30 13:50:32;;;;;;;4.28;1.73;;;;;;;;;;5027811;28;20203;-78
2022/10/30 13:53:00;;;;;;;4.88;2.10;;;;;;;;;;5029270;28;20184;-78
2022/10/30 13:55:29;;;;;;;2.95;1.90;;;;;;;;;;5030217;28;21605;-78
2022/10/30 13:58:14;;;;;;;5.47;2.00;;;;;;;;;;5024026;28;20191;-78
2022/10/30 14:00:49;;;;;;;3.15;1.92;;;;;;;;;;5030607;28;20175;-78
2022/10/30 14:03:33;;;;;;;5.57;1.85;;;;;;;;;;5030092;28;20325;-79
2022/10/30 14:06:02;;;;;;;2.78;1.65;;;;;;;;;;5028951;28;20274;-79
2022/10/30 14:08:32;;;;;;;2.38;1.88;;;;;;;;;;5029346;28;20261;-78
2022/10/30 14:10:58;;;;;;;2.42;1.67;;;;;;;;;;5029186;28;20170;-78
2022/10/30 14:13:27;;;;;;;3.80;1.67;;;;;;;;;;5027016;28;20245;-78
2022/10/30 14:15:59;;;;;;;3.38;1.90;;;;;;;;;;5031300;28;20237;-78
2022/10/30 14:18:29;;;;;;;3.13;2.03;;;;;;;;;;5031517;28;20186;-78
2022/10/30 14:20:55;;;;;;;2.47;2.28;;;;;;;;;;5030684;28;20255;-78
2022/10/30 14:23:24;;;;;;;2.58;1.60;;;;;;;;;;5028152;28;20174;-78
2022/10/30 14:26:04;;;;;;;2.88;1.70;;;;;;;;;;5034077;28;20183;-78
2022/10/30 14:28:30;;;;;;;4.90;1.65;;;;;;;;;;5029391;28;20202;-78
2022/10/30 14:31:06;;;;;;;2.72;1.52;;;;;;;;;;5028130;28;20178;-78
2022/10/30 14:33:44;;;;;;;4.90;1.90;;;;;;;;;;5028091;28;20230;-78
2022/10/30 14:36:13;;;;;;;5.63;2.35;;;;;;;;;;5029321;28;20198;-79
2022/10/30 14:38:38;;;;;;;5.28;1.77;;;;;;;;;;5032624;28;20187;-78
2022/10/30 14:41:07;;;;;;;3.63;2.25;;;;;;;;;;5030401;28;20186;-78
2022/10/30 14:43:44;;;;;;;3.72;2.20;;;;;;;;;;5039683;28;20265;-78
2022/10/30 14:46:16;;;;;;;1.77;1.60;;;;;;;;;;5025833;28;20194;-78